Terminal Aerodrome Forecast
Issued by NWS

Home | Current Version | Previous Version | Text Only | Print | Product List | Glossary On
Versions: 1 2 3 4 5 6 7 8 9 10 11 12 13 14 15 16 17 18 19 20 21 22 23 24
000
FTUS44 KMAF 192300
TAFHOB
TAF
KHOB 192324Z 2000/2024 15009KT P6SM SCT050 OVC110
      TEMPO 2001/2004 VRB12G22KT 5SM TSRA BKN030CB
     FM200500 20008KT P6SM OVC120
      TEMPO 2010/2014 OVC015=

USA.gov is the U.S. government's official web portal to all federal, state and local government web resources and services.